sensor_id;sensor_type;location;lat;lon;timestamp;pressure;altitude;pressure_sealevel;temperature;humidity
41862;BME280;27537;57.134;-2.136;2023-02-19T00:01:34;101246.03;;;4.17;100.00
41862;BME280;27537;57.134;-2.136;2023-02-19T00:04:07;101216.75;;;3.93;100.00
41862;BME280;27537;57.134;-2.136;2023-02-19T00:06:35;101179.66;;;3.62;100.00
41862;BME280;27537;57.134;-2.136;2023-02-19T00:09:02;101247.78;;;4.12;100.00
41862;BME280;27537;57.134;-2.136;2023-02-19T00:11:32;101256.41;;;4.20;100.00
41862;BME280;27537;57.134;-2.136;2023-02-19T00:14:00;101256.38;;;4.31;100.00
41862;BME280;27537;57.134;-2.136;2023-02-19T00:16:30;101245.19;;;4.10;100.00
41862;BME280;27537;57.134;-2.136;2023-02-19T00:18:58;101262.44;;;4.19;100.00
41862;BME280;27537;57.134;-2.136;2023-02-19T00:21:26;101208.13;;;3.77;100.00
41862;BME280;27537;57.134;-2.136;2023-02-19T00:23:58;101265.91;;;4.18;100.00
41862;BME280;27537;57.134;-2.136;2023-02-19T00:26:26;101262.44;;;4.21;100.00
41862;BME280;27537;57.134;-2.136;2023-02-19T00:28:54;101233.09;;;4.02;100.00
41862;BME280;27537;57.134;-2.136;2023-02-19T00:31:29;101263.28;;;4.23;100.00
41862;BME280;27537;57.134;-2.136;2023-02-19T00:34:00;101216.75;;;3.93;100.00
41862;BME280;27537;57.134;-2.136;2023-02-19T00:36:27;101214.16;;;3.93;100.00
41862;BME280;27537;57.134;-2.136;2023-02-19T00:38:54;101210.69;;;3.84;100.00
41862;BME280;27537;57.134;-2.136;2023-02-19T00:41:22;101238.28;;;4.06;100.00
41862;BME280;27537;57.134;-2.136;2023-02-19T00:44:05;101256.41;;;4.18;100.00
41862;BME280;27537;57.134;-2.136;2023-02-19T00:46:35;101252.97;;;4.16;100.00
41862;BME280;27537;57.134;-2.136;2023-02-19T00:49:03;101257.25;;;4.21;100.00
41862;BME280;27537;57.134;-2.136;2023-02-19T00:51:33;101259.84;;;4.19;100.00
41862;BME280;27537;57.134;-2.136;2023-02-19T00:54:01;101270.25;;;4.11;100.00
41862;BME280;27537;57.134;-2.136;2023-02-19T00:56:28;101268.50;;;4.10;100.00
41862;BME280;27537;57.134;-2.136;2023-02-19T00:58:55;101264.19;;;4.09;100.00
41862;BME280;27537;57.134;-2.136;2023-02-19T01:01:22;101221.09;;;3.77;100.00
41862;BME280;27537;57.134;-2.136;2023-02-19T01:03:49;101230.59;;;3.72;100.00
41862;BME280;27537;57.134;-2.136;2023-02-19T01:06:18;101291.81;;;4.09;100.00
41862;BME280;27537;57.134;-2.136;2023-02-19T01:08:45;101240.94;;;3.69;100.00
41862;BME280;27537;57.134;-2.136;2023-02-19T01:11:13;101242.69;;;3.67;100.00
41862;BME280;27537;57.134;-2.136;2023-02-19T01:13:40;101211.59;;;3.50;100.00
41862;BME280;27537;57.134;-2.136;2023-02-19T01:18:37;101237.50;;;3.49;100.00
41862;BME280;27537;57.134;-2.136;2023-02-19T01:21:06;101284.13;;;3.70;100.00
41862;BME280;27537;57.134;-2.136;2023-02-19T01:23:33;101266.84;;;3.61;100.00
41862;BME280;27537;57.134;-2.136;2023-02-19T01:26:05;101253.91;;;3.55;100.00
41862;BME280;27537;57.134;-2.136;2023-02-19T01:28:33;101225.41;;;3.29;100.00
41862;BME280;27537;57.134;-2.136;2023-02-19T01:31:02;101276.34;;;3.67;100.00
41862;BME280;27537;57.134;-2.136;2023-02-19T01:33:29;101250.47;;;3.47;100.00
41862;BME280;27537;57.134;-2.136;2023-02-19T01:35:56;101228.03;;;3.28;100.00
41862;BME280;27537;57.134;-2.136;2023-02-19T01:38:23;101239.22;;;3.27;100.00
41862;BME280;27537;57.134;-2.136;2023-02-19T01:40:58;101280.66;;;3.50;100.00
41862;BME280;27537;57.134;-2.136;2023-02-19T01:43:26;101260.78;;;3.27;100.00
41862;BME280;27537;57.134;-2.136;2023-02-19T01:45:53;101272.84;;;3.22;100.00
41862;BME280;27537;57.134;-2.136;2023-02-19T01:48:39;101275.47;;;3.27;100.00
41862;BME280;27537;57.134;-2.136;2023-02-19T01:51:14;101255.63;;;3.12;100.00
41862;BME280;27537;57.134;-2.136;2023-02-19T01:53:48;101310.84;;;3.34;100.00
41862;BME280;27537;57.134;-2.136;2023-02-19T01:56:19;101263.34;;;2.99;100.00
41862;BME280;27537;57.134;-2.136;2023-02-19T01:58:46;101255.53;;;2.82;100.00
41862;BME280;27537;57.134;-2.136;2023-02-19T02:01:13;101259.00;;;2.88;100.00
41862;BME280;27537;57.134;-2.136;2023-02-19T02:03:43;101268.47;;;2.75;100.00
41862;BME280;27537;57.134;-2.136;2023-02-19T02:06:22;101315.09;;;3.13;100.00
41862;BME280;27537;57.134;-2.136;2023-02-19T02:08:55;101285.78;;;2.96;100.00
41862;BME280;27537;57.134;-2.136;2023-02-19T02:11:49;101277.13;;;2.95;100.00
41862;BME280;27537;57.134;-2.136;2023-02-19T02:14:17;101303.91;;;3.20;100.00
41862;BME280;27537;57.134;-2.136;2023-02-19T02:17:20;101306.50;;;3.20;100.00
41862;BME280;27537;57.134;-2.136;2023-02-19T02:26:07;101303.06;;;3.15;100.00
41862;BME280;27537;57.134;-2.136;2023-02-19T02:31:09;101259.81;;;2.74;100.00
41862;BME280;27537;57.134;-2.136;2023-02-19T02:34:03;101309.97;;;3.12;100.00
41862;BME280;27537;57.134;-2.136;2023-02-19T02:36:39;101236.53;;;2.65;100.00
41862;BME280;27537;57.134;-2.136;2023-02-19T02:39:10;101315.94;;;3.00;100.00
41862;BME280;27537;57.134;-2.136;2023-02-19T02:41:49;101274.41;;;2.58;100.00
41862;BME280;27537;57.134;-2.136;2023-02-19T02:44:36;101268.38;;;2.50;100.00
41862;BME280;27537;57.134;-2.136;2023-02-19T02:47:05;101324.50;;;2.79;100.00
41862;BME280;27537;57.134;-2.136;2023-02-19T02:49:33;101321.91;;;2.79;100.00
41862;BME280;27537;57.134;-2.136;2023-02-19T02:52:20;101299.44;;;2.61;100.00
41862;BME280;27537;57.134;-2.136;2023-02-19T02:55:08;101288.22;;;2.56;100.00
41862;BME280;27537;57.134;-2.136;2023-02-19T02:57:36;101276.13;;;2.55;100.00
41862;BME280;27537;57.134;-2.136;2023-02-19T03:00:03;101278.72;;;2.56;100.00
41862;BME280;27537;57.134;-2.136;2023-02-19T03:02:30;101278.72;;;2.58;100.00
41862;BME280;27537;57.134;-2.136;2023-02-19T03:05:20;101285.66;;;2.65;100.00
41862;BME280;27537;57.134;-2.136;2023-02-19T03:08:14;101327.09;;;2.87;100.00
41862;BME280;27537;57.134;-2.136;2023-02-19T03:10:44;101295.94;;;2.54;100.00
41862;BME280;27537;57.134;-2.136;2023-02-19T03:13:26;101340.03;;;2.87;100.00
41862;BME280;27537;57.134;-2.136;2023-02-19T03:16:26;101308.03;;;2.61;100.00
41862;BME280;27537;57.134;-2.136;2023-02-19T03:19:14;101348.66;;;2.82;100.00
41862;BME280;27537;57.134;-2.136;2023-02-19T03:21:53;101313.25;;;2.68;100.00
41862;BME280;27537;57.134;-2.136;2023-02-19T03:24:27;101260.56;;;2.39;100.00
41862;BME280;27537;57.134;-2.136;2023-02-19T03:27:14;101302.00;;;2.52;100.00
41862;BME280;27537;57.134;-2.136;2023-02-19T03:29:43;101324.41;;;2.62;100.00
41862;BME280;27537;57.134;-2.136;2023-02-19T03:32:17;101302.00;;;2.52;100.00
41862;BME280;27537;57.134;-2.136;2023-02-19T03:34:51;101265.63;;;2.19;100.00
41862;BME280;27537;57.134;-2.136;2023-02-19T03:37:37;101322.50;;;2.24;100.00
41862;BME280;27537;57.134;-2.136;2023-02-19T03:40:07;101309.53;;;2.19;100.00
41862;BME280;27537;57.134;-2.136;2023-02-19T03:48:08;101334.63;;;2.34;100.00
41862;BME280;27537;57.134;-2.136;2023-02-19T03:50:51;101337.13;;;2.22;100.00
41862;BME280;27537;57.134;-2.136;2023-02-19T03:53:46;101363.91;;;2.35;100.00
41862;BME280;27537;57.134;-2.136;2023-02-19T03:56:37;101369.13;;;2.38;100.00
41862;BME280;27537;57.134;-2.136;2023-02-19T04:01:55;101365.47;;;2.09;100.00
41862;BME280;27537;57.134;-2.136;2023-02-19T04:04:29;101274.69;;;1.57;100.00
41862;BME280;27537;57.134;-2.136;2023-02-19T04:06:58;101292.88;;;1.73;100.00
41862;BME280;27537;57.134;-2.136;2023-02-19T04:09:29;101313.56;;;1.76;100.00
41862;BME280;27537;57.134;-2.136;2023-02-19T04:11:59;101288.44;;;1.59;100.00
41862;BME280;27537;57.134;-2.136;2023-02-19T04:14:39;101337.03;;;2.08;100.00
41862;BME280;27537;57.134;-2.136;2023-02-19T04:17:16;101307.69;;;1.97;100.00
41862;BME280;27537;57.134;-2.136;2023-02-19T04:19:46;101234.25;;;1.58;100.00
41862;BME280;27537;57.134;-2.136;2023-02-19T04:22:16;101280.16;;;2.00;100.00
41862;BME280;27537;57.134;-2.136;2023-02-19T04:24:53;101262.78;;;1.76;100.00
41862;BME280;27537;57.134;-2.136;2023-02-19T04:27:20;101285.25;;;1.93;100.00
41862;BME280;27537;57.134;-2.136;2023-02-19T04:29:47;101311.25;;;2.17;100.00
41862;BME280;27537;57.134;-2.136;2023-02-19T04:32:14;101286.13;;;1.92;100.00
41862;BME280;27537;57.134;-2.136;2023-02-19T04:34:41;101252.38;;;1.65;100.00
41862;BME280;27537;57.134;-2.136;2023-02-19T04:37:07;101278.28;;;1.76;100.00
41862;BME280;27537;57.134;-2.136;2023-02-19T04:39:35;101323.38;;;2.21;100.00
41862;BME280;27537;57.134;-2.136;2023-02-19T04:42:02;101169.63;;;1.42;100.00
41862;BME280;27537;57.134;-2.136;2023-02-19T04:44:29;101271.44;;;1.83;100.00
41862;BME280;27537;57.134;-2.136;2023-02-19T04:46:55;101277.59;;;2.00;100.00
41862;BME280;27537;57.134;-2.136;2023-02-19T04:49:22;101237.97;;;2.00;100.00
41862;BME280;27537;57.134;-2.136;2023-02-19T04:51:49;101269.13;;;2.29;100.00
41862;BME280;27537;57.134;-2.136;2023-02-19T04:54:16;101270.88;;;2.33;100.00
41862;BME280;27537;57.134;-2.136;2023-02-19T04:56:42;101286.53;;;2.62;100.00
41862;BME280;27537;57.134;-2.136;2023-02-19T04:59:09;101246.75;;;2.37;100.00
41862;BME280;27537;57.134;-2.136;2023-02-19T05:01:36;101239.88;;;2.38;100.00
41862;BME280;27537;57.134;-2.136;2023-02-19T05:04:03;101269.25;;;2.55;100.00
41862;BME280;27537;57.134;-2.136;2023-02-19T05:06:30;101264.09;;;2.61;100.00
41862;BME280;27537;57.134;-2.136;2023-02-19T05:08:57;101266.72;;;2.68;100.00
41862;BME280;27537;57.134;-2.136;2023-02-19T05:11:24;101213.16;;;2.31;100.00
41862;BME280;27537;57.134;-2.136;2023-02-19T05:13:51;101215.75;;;2.39;100.00
41862;BME280;27537;57.134;-2.136;2023-02-19T05:16:17;101264.97;;;2.65;100.00
41862;BME280;27537;57.134;-2.136;2023-02-19T05:18:45;101276.19;;;2.62;100.00
41862;BME280;27537;57.134;-2.136;2023-02-19T05:21:12;101213.16;;;2.37;100.00
41862;BME280;27537;57.134;-2.136;2023-02-19T05:23:40;101216.59;;;2.33;100.00
41862;BME280;27537;57.134;-2.136;2023-02-19T05:26:22;101261.50;;;2.55;100.00
41862;BME280;27537;57.134;-2.136;2023-02-19T05:28:51;101238.16;;;2.37;100.00
41862;BME280;27537;57.134;-2.136;2023-02-19T05:31:19;101259.78;;;2.59;100.00
41862;BME280;27537;57.134;-2.136;2023-02-19T05:33:46;101259.75;;;2.48;100.00
41862;BME280;27537;57.134;-2.136;2023-02-19T05:36:18;101253.63;;;2.34;100.00
41862;BME280;27537;57.134;-2.136;2023-02-19T05:38:46;101235.50;;;2.23;100.00
41862;BME280;27537;57.134;-2.136;2023-02-19T05:41:19;101213.94;;;2.13;100.00
41862;BME280;27537;57.134;-2.136;2023-02-19T05:43:47;101205.28;;;2.00;100.00
41862;BME280;27537;57.134;-2.136;2023-02-19T05:46:16;101241.50;;;2.13;100.00
41862;BME280;27537;57.134;-2.136;2023-02-19T05:48:43;101224.22;;;2.07;100.00
41862;BME280;27537;57.134;-2.136;2023-02-19T05:51:12;101212.19;;;2.09;100.00
41862;BME280;27537;57.134;-2.136;2023-02-19T05:53:40;101224.31;;;2.22;100.00
41862;BME280;27537;57.134;-2.136;2023-02-19T05:58:52;101276.19;;;2.70;100.00
41862;BME280;27537;57.134;-2.136;2023-02-19T06:01:21;101283.13;;;2.85;100.00
41862;BME280;27537;57.134;-2.136;2023-02-19T06:03:48;101277.09;;;2.77;100.00
41862;BME280;27537;57.134;-2.136;2023-02-19T06:06:17;101214.94;;;2.51;100.00
41862;BME280;27537;57.134;-2.136;2023-02-19T06:08:44;101280.56;;;2.88;100.00
41862;BME280;27537;57.134;-2.136;2023-02-19T06:11:11;101254.66;;;2.77;100.00
41862;BME280;27537;57.134;-2.136;2023-02-19T06:13:38;101233.06;;;2.58;100.00
41862;BME280;27537;57.134;-2.136;2023-02-19T06:16:06;101259.84;;;2.79;100.00
41862;BME280;27537;57.134;-2.136;2023-02-19T06:18:33;101255.56;;;2.90;100.00
41862;BME280;27537;57.134;-2.136;2023-02-19T06:21:04;101221.91;;;2.70;100.00
41862;BME280;27537;57.134;-2.136;2023-02-19T06:23:31;101247.81;;;2.87;100.00
41862;BME280;27537;57.134;-2.136;2023-02-19T06:26:25;101249.56;;;3.03;100.00
41862;BME280;27537;57.134;-2.136;2023-02-19T06:28:52;101232.28;;;2.89;100.00
41862;BME280;27537;57.134;-2.136;2023-02-19T06:31:22;101211.56;;;2.70;100.00
41862;BME280;27537;57.134;-2.136;2023-02-19T06:33:49;101199.44;;;2.58;100.00
41862;BME280;27537;57.134;-2.136;2023-02-19T06:36:18;101229.72;;;2.95;100.00
41862;BME280;27537;57.134;-2.136;2023-02-19T06:38:45;101246.97;;;2.94;100.00
41862;BME280;27537;57.134;-2.136;2023-02-19T06:41:12;101176.19;;;2.60;100.00
41862;BME280;27537;57.134;-2.136;2023-02-19T06:43:40;101157.22;;;2.52;100.00
41862;BME280;27537;57.134;-2.136;2023-02-19T06:46:07;101169.28;;;2.48;100.00
41862;BME280;27537;57.134;-2.136;2023-02-19T06:48:34;101176.19;;;2.57;100.00
41862;BME280;27537;57.134;-2.136;2023-02-19T06:51:01;101220.19;;;2.78;100.00
41862;BME280;27537;57.134;-2.136;2023-02-19T06:53:28;101144.31;;;2.52;100.00
41862;BME280;27537;57.134;-2.136;2023-02-19T06:55:56;101203.81;;;2.78;100.00
41862;BME280;27537;57.134;-2.136;2023-02-19T06:58:23;101172.72;;;2.53;100.00
41862;BME280;27537;57.134;-2.136;2023-02-19T07:00:50;101181.31;;;2.41;100.00
41862;BME280;27537;57.134;-2.136;2023-02-19T07:03:17;101163.19;;;2.27;100.00
41862;BME280;27537;57.134;-2.136;2023-02-19T07:05:44;101157.19;;;2.38;100.00
41862;BME280;27537;57.134;-2.136;2023-02-19T07:08:11;101186.53;;;2.69;100.00
41862;BME280;27537;57.134;-2.136;2023-02-19T07:10:38;101145.97;;;2.40;100.00
41862;BME280;27537;57.134;-2.136;2023-02-19T07:13:04;101129.56;;;2.23;100.00
41862;BME280;27537;57.134;-2.136;2023-02-19T07:15:31;101121.84;;;2.37;100.00
41862;BME280;27537;57.134;-2.136;2023-02-19T07:17:58;101176.25;;;2.80;100.00
41862;BME280;27537;57.134;-2.136;2023-02-19T07:20:25;101100.28;;;2.30;100.00
41862;BME280;27537;57.134;-2.136;2023-02-19T07:22:52;101114.97;;;2.36;100.00
41862;BME280;27537;57.134;-2.136;2023-02-19T07:25:19;101124.44;;;2.31;100.00
41862;BME280;27537;57.134;-2.136;2023-02-19T07:27:45;101103.75;;;2.27;100.00
41862;BME280;27537;57.134;-2.136;2023-02-19T07:30:12;101144.25;;;2.36;100.00
41862;BME280;27537;57.134;-2.136;2023-02-19T07:32:40;101160.66;;;2.51;100.00
41862;BME280;27537;57.134;-2.136;2023-02-19T07:35:07;101157.22;;;2.52;100.00
41862;BME280;27537;57.134;-2.136;2023-02-19T07:37:34;101117.53;;;2.25;100.00
41862;BME280;27537;57.134;-2.136;2023-02-19T07:40:01;101127.84;;;2.26;100.00
41862;BME280;27537;57.134;-2.136;2023-02-19T07:42:28;101133.09;;;2.56;100.00
41862;BME280;27537;57.134;-2.136;2023-02-19T07:44:55;101184.00;;;2.94;100.00
41862;BME280;27537;57.134;-2.136;2023-02-19T07:47:24;101169.34;;;2.80;100.00
41862;BME280;27537;57.134;-2.136;2023-02-19T07:49:51;101165.03;;;2.82;100.00
41862;BME280;27537;57.134;-2.136;2023-02-19T07:52:17;101160.72;;;3.00;100.00
41862;BME280;27537;57.134;-2.136;2023-02-19T07:54:44;101102.97;;;2.64;100.00
41862;BME280;27537;57.134;-2.136;2023-02-19T07:57:11;101135.72;;;2.99;100.00
41862;BME280;27537;57.134;-2.136;2023-02-19T07:59:37;101090.03;;;2.70;100.00
41862;BME280;27537;57.134;-2.136;2023-02-19T08:02:13;101131.41;;;3.01;100.00
41862;BME280;27537;57.134;-2.136;2023-02-19T08:04:59;101147.81;;;3.15;100.00
41862;BME280;27537;57.134;-2.136;2023-02-19T08:07:33;101143.50;;;3.05;100.00
41862;BME280;27537;57.134;-2.136;2023-02-19T08:10:01;101142.63;;;3.14;100.00
41862;BME280;27537;57.134;-2.136;2023-02-19T08:12:57;101161.56;;;3.33;100.00
41862;BME280;27537;57.134;-2.136;2023-02-19T08:15:43;101121.94;;;3.03;100.00
41862;BME280;27537;57.134;-2.136;2023-02-19T08:18:10;101083.16;;;2.92;100.00
41862;BME280;27537;57.134;-2.136;2023-02-19T08:20:37;101119.34;;;3.28;100.00
41862;BME280;27537;57.134;-2.136;2023-02-19T08:23:04;101105.50;;;3.29;100.00
41862;BME280;27537;57.134;-2.136;2023-02-19T08:25:31;101086.53;;;3.23;100.00
41862;BME280;27537;57.134;-2.136;2023-02-19T08:27:59;101091.72;;;3.20;100.00
41862;BME280;27537;57.134;-2.136;2023-02-19T08:30:29;101131.34;;;3.59;100.00
41862;BME280;27537;57.134;-2.136;2023-02-19T08:32:58;101115.78;;;3.67;100.00
41862;BME280;27537;57.134;-2.136;2023-02-19T08:35:27;101110.59;;;3.70;100.00
41862;BME280;27537;57.134;-2.136;2023-02-19T08:37:58;101111.44;;;3.72;100.00
41862;BME280;27537;57.134;-2.136;2023-02-19T08:40:25;101074.38;;;3.50;100.00
41862;BME280;27537;57.134;-2.136;2023-02-19T08:42:52;101042.50;;;3.44;100.00
41862;BME280;27537;57.134;-2.136;2023-02-19T08:45:19;101051.97;;;3.41;100.00
41862;BME280;27537;57.134;-2.136;2023-02-19T08:47:46;101071.75;;;3.63;100.00
41862;BME280;27537;57.134;-2.136;2023-02-19T08:50:13;101066.63;;;3.55;100.00
41862;BME280;27537;57.134;-2.136;2023-02-19T08:52:39;101045.00;;;3.64;100.00
41862;BME280;27537;57.134;-2.136;2023-02-19T08:55:06;101058.75;;;3.76;100.00
41862;BME280;27537;57.134;-2.136;2023-02-19T08:57:36;101100.91;;;4.12;100.00
41862;BME280;27537;57.134;-2.136;2023-02-19T09:00:05;101112.16;;;4.10;100.00
41862;BME280;27537;57.134;-2.136;2023-02-19T09:02:32;101107.78;;;4.19;100.00
41862;BME280;27537;57.134;-2.136;2023-02-19T09:04:59;101034.53;;;3.91;100.00
41862;BME280;27537;57.134;-2.136;2023-02-19T09:07:26;101037.91;;;4.06;100.00
41862;BME280;27537;57.134;-2.136;2023-02-19T09:09:53;101059.41;;;4.17;100.00
41862;BME280;27537;57.134;-2.136;2023-02-19T09:12:20;101054.16;;;4.29;100.00
41862;BME280;27537;57.134;-2.136;2023-02-19T09:14:47;101036.94;;;4.22;100.00
41862;BME280;27537;57.134;-2.136;2023-02-19T09:17:13;101015.28;;;4.26;100.00
41862;BME280;27537;57.134;-2.136;2023-02-19T09:19:40;100990.38;;;4.08;100.00
41862;BME280;27537;57.134;-2.136;2023-02-19T09:22:07;101021.38;;;4.25;100.00
41862;BME280;27537;57.134;-2.136;2023-02-19T09:24:34;101033.34;;;4.37;100.00
41862;BME280;27537;57.134;-2.136;2023-02-19T09:27:01;101031.59;;;4.41;100.00
41862;BME280;27537;57.134;-2.136;2023-02-19T09:29:28;101047.94;;;4.53;100.00
41862;BME280;27537;57.134;-2.136;2023-02-19T09:31:59;101006.59;;;4.33;100.00
41862;BME280;27537;57.134;-2.136;2023-02-19T09:34:27;101074.56;;;4.77;100.00
41862;BME280;27537;57.134;-2.136;2023-02-19T09:36:54;100987.63;;;4.28;100.00
41862;BME280;27537;57.134;-2.136;2023-02-19T09:39:21;101025.47;;;4.51;100.00
41862;BME280;27537;57.134;-2.136;2023-02-19T09:42:00;101038.31;;;4.69;100.00
41862;BME280;27537;57.134;-2.136;2023-02-19T09:44:31;101069.34;;;4.82;100.00
41862;BME280;27537;57.134;-2.136;2023-02-19T09:47:00;101075.41;;;4.76;100.00
41862;BME280;27537;57.134;-2.136;2023-02-19T09:49:34;101049.56;;;4.68;100.00
41862;BME280;27537;57.134;-2.136;2023-02-19T09:52:14;101082.25;;;4.85;100.00
41862;BME280;27537;57.134;-2.136;2023-02-19T09:54:44;101047.03;;;4.59;100.00
41862;BME280;27537;57.134;-2.136;2023-02-19T09:57:18;101021.97;;;4.55;100.00
41862;BME280;27537;57.134;-2.136;2023-02-19T09:59:50;101086.50;;;4.98;100.00
41862;BME280;27537;57.134;-2.136;2023-02-19T10:02:21;101099.38;;;5.07;100.00
41862;BME280;27537;57.134;-2.136;2023-02-19T10:04:49;101055.66;;;4.64;100.00
41862;BME280;27537;57.134;-2.136;2023-02-19T10:07:23;101059.06;;;4.69;100.00
41862;BME280;27537;57.134;-2.136;2023-02-19T10:09:56;101103.63;;;5.18;100.00
41862;BME280;27537;57.134;-2.136;2023-02-19T10:12:28;101054.53;;;4.90;100.00
41862;BME280;27537;57.134;-2.136;2023-02-19T10:15:04;101047.59;;;4.95;100.00
41862;BME280;27537;57.134;-2.136;2023-02-19T10:17:36;101092.31;;;5.23;100.00
41862;BME280;27537;57.134;-2.136;2023-02-19T10:20:03;101038.88;;;4.99;100.00
41862;BME280;27537;57.134;-2.136;2023-02-19T10:22:31;101057.63;;;5.27;100.00
41862;BME280;27537;57.134;-2.136;2023-02-19T10:24:59;101030.03;;;5.19;100.00
41862;BME280;27537;57.134;-2.136;2023-02-19T10:27:29;101060.94;;;5.42;100.00
41862;BME280;27537;57.134;-2.136;2023-02-19T10:29:59;101018.94;;;5.04;100.00
41862;BME280;27537;57.134;-2.136;2023-02-19T10:32:26;101004.97;;;5.16;100.00
41862;BME280;27537;57.134;-2.136;2023-02-19T10:35:15;101052.13;;;5.57;100.00
41862;BME280;27537;57.134;-2.136;2023-02-19T10:37:44;101038.25;;;5.59;100.00
41862;BME280;27537;57.134;-2.136;2023-02-19T10:40:17;101056.41;;;5.61;100.00
41862;BME280;27537;57.134;-2.136;2023-02-19T10:42:46;101028.78;;;5.54;100.00
41862;BME280;27537;57.134;-2.136;2023-02-19T10:45:27;101019.19;;;5.59;100.00
41862;BME280;27537;57.134;-2.136;2023-02-19T10:47:56;101033.72;;;5.74;100.00
41862;BME280;27537;57.134;-2.136;2023-02-19T10:50:27;101037.06;;;5.83;100.00
41862;BME280;27537;57.134;-2.136;2023-02-19T10:52:57;100965.72;;;5.44;100.00
41862;BME280;27537;57.134;-2.136;2023-02-19T10:57:54;100974.22;;;5.57;100.00
41862;BME280;27537;57.134;-2.136;2023-02-19T11:00:24;100969.66;;;5.74;100.00
41862;BME280;27537;57.134;-2.136;2023-02-19T11:03:22;101009.22;;;5.96;100.00
41862;BME280;27537;57.134;-2.136;2023-02-19T11:05:53;101015.34;;;5.87;100.00
41862;BME280;27537;57.134;-2.136;2023-02-19T11:08:23;100973.72;;;5.92;100.00
41862;BME280;27537;57.134;-2.136;2023-02-19T11:10:50;100942.78;;;5.75;100.00
41862;BME280;27537;57.134;-2.136;2023-02-19T11:13:27;100955.47;;;5.98;100.00
41862;BME280;27537;57.134;-2.136;2023-02-19T11:15:57;101000.06;;;6.28;100.00
41862;BME280;27537;57.134;-2.136;2023-02-19T11:18:27;100940.75;;;5.94;100.00
41862;BME280;27537;57.134;-2.136;2023-02-19T11:21:01;100991.19;;;6.43;100.00
41862;BME280;27537;57.134;-2.136;2023-02-19T11:23:31;100970.47;;;6.37;100.00
41862;BME280;27537;57.134;-2.136;2023-02-19T11:26:06;100980.66;;;6.51;100.00
41862;BME280;27537;57.134;-2.136;2023-02-19T11:28:42;100949.03;;;6.21;100.00
41862;BME280;27537;57.134;-2.136;2023-02-19T11:33:58;100975.41;;;6.54;100.00
41862;BME280;27537;57.134;-2.136;2023-02-19T11:36:32;100971.09;;;6.51;100.00
41862;BME280;27537;57.134;-2.136;2023-02-19T11:52:59;100874.22;;;6.38;100.00
41862;BME280;27537;57.134;-2.136;2023-02-19T11:58:54;100902.13;;;6.77;100.00
41862;BME280;27537;57.134;-2.136;2023-02-19T12:21:14;100822.88;;;6.90;100.00
41862;BME280;27537;57.134;-2.136;2023-02-19T12:24:15;100821.06;;;6.95;100.00
41862;BME280;27537;57.134;-2.136;2023-02-19T12:38:55;100747.81;;;7.11;100.00
41862;BME280;27537;57.134;-2.136;2023-02-19T12:44:19;100756.66;;;7.41;100.00
41862;BME280;27537;57.134;-2.136;2023-02-19T12:46:58;100741.56;;;7.54;100.00
41862;BME280;27537;57.134;-2.136;2023-02-19T12:49:34;100680.75;;;7.20;100.00
41862;BME280;27537;57.134;-2.136;2023-02-19T12:52:24;100690.09;;;7.29;100.00
41862;BME280;27537;57.134;-2.136;2023-02-19T12:55:25;100760.16;;;7.76;100.00
41862;BME280;27537;57.134;-2.136;2023-02-19T12:57:54;100690.59;;;7.44;100.00
41862;BME280;27537;57.134;-2.136;2023-02-19T13:00:40;100694.19;;;7.74;100.00
41862;BME280;27537;57.134;-2.136;2023-02-19T13:06:10;100671.06;;;7.62;100.00
41862;BME280;27537;57.134;-2.136;2023-02-19T13:08:47;100660.47;;;7.66;100.00
41862;BME280;27537;57.134;-2.136;2023-02-19T13:11:39;100647.63;;;7.60;100.00
41862;BME280;27537;57.134;-2.136;2023-02-19T13:16:38;100681.03;;;8.10;100.00
41862;BME280;27537;57.134;-2.136;2023-02-19T13:19:08;100679.34;;;8.07;100.00
41862;BME280;27537;57.134;-2.136;2023-02-19T13:21:37;100603.91;;;7.70;100.00
41862;BME280;27537;57.134;-2.136;2023-02-19T13:24:26;100677.06;;;8.26;100.00
41862;BME280;27537;57.134;-2.136;2023-02-19T13:38:00;100613.88;;;8.18;100.00
41862;BME280;27537;57.134;-2.136;2023-02-19T13:43:06;100609.41;;;8.22;100.00
41862;BME280;27537;57.134;-2.136;2023-02-19T13:45:42;100575.00;;;8.09;100.00
41862;BME280;27537;57.134;-2.136;2023-02-19T13:48:32;100585.81;;;8.25;100.00
41862;BME280;27537;57.134;-2.136;2023-02-19T14:14:52;100496.81;;;8.62;100.00
41862;BME280;27537;57.134;-2.136;2023-02-19T14:20:01;100474.72;;;8.72;100.00
41862;BME280;27537;57.134;-2.136;2023-02-19T14:28:16;100457.25;;;9.25;100.00
41862;BME280;27537;57.134;-2.136;2023-02-19T14:30:59;100452.50;;;9.35;100.00
41862;BME280;27537;57.134;-2.136;2023-02-19T14:33:31;100450.81;;;9.34;100.00
41862;BME280;27537;57.134;-2.136;2023-02-19T14:36:03;100400.16;;;9.14;100.00
41862;BME280;27537;57.134;-2.136;2023-02-19T14:38:36;100381.38;;;9.28;100.00
41862;BME280;27537;57.134;-2.136;2023-02-19T14:41:04;100411.38;;;9.63;100.00
41862;BME280;27537;57.134;-2.136;2023-02-19T14:43:32;100373.44;;;9.29;100.00
41862;BME280;27537;57.134;-2.136;2023-02-19T14:46:08;100357.97;;;9.47;100.00
41862;BME280;27537;57.134;-2.136;2023-02-19T14:48:44;100378.13;;;9.67;100.00
41862;BME280;27537;57.134;-2.136;2023-02-19T14:51:27;100389.06;;;9.77;100.00
41862;BME280;27537;57.134;-2.136;2023-02-19T14:53:56;100327.25;;;9.31;100.00
41862;BME280;27537;57.134;-2.136;2023-02-19T14:56:32;100368.88;;;9.58;100.00
41862;BME280;27537;57.134;-2.136;2023-02-19T15:01:34;100331.91;;;9.45;100.00
41862;BME280;27537;57.134;-2.136;2023-02-19T15:04:01;100346.13;;;9.60;100.00
41862;BME280;27537;57.134;-2.136;2023-02-19T15:06:29;100326.84;;;9.63;100.00
41862;BME280;27537;57.134;-2.136;2023-02-19T15:08:58;100311.84;;;9.68;100.00
41862;BME280;27537;57.134;-2.136;2023-02-19T15:11:28;100303.75;;;9.52;100.00
41862;BME280;27537;57.134;-2.136;2023-02-19T15:14:01;100333.75;;;9.86;100.00
41862;BME280;27537;57.134;-2.136;2023-02-19T15:16:29;100280.81;;;9.81;100.00